Time;durP1;ratioP1;P1;durP2;ratioP2;P2;SDS_P1;SDS_P2;PMS_P1;PMS_P2;Temp;Humidity;BMP_temperature;BMP_pressure;BME280_temperature;BME280_humidity;BME280_pressure;Samples;Min_cycle;Max_cycle;Signal;HPM_P1;HPM_P2
2022/07/12 00:01:53;;;;;;;5.55;4.43;;;15.80;99.90;;;;;;4963621;28;20051;-76
2022/07/12 00:04:19;;;;;;;4.72;4.05;;;15.70;99.90;;;;;;4961955;28;20089;-76
2022/07/12 00:06:44;;;;;;;6.53;4.78;;;15.60;99.90;;;;;;4957507;28;20039;-76
2022/07/12 00:09:10;;;;;;;4.85;4.45;;;15.60;99.90;;;;;;4969016;28;20053;-76
2022/07/12 00:11:37;;;;;;;3.78;3.42;;;15.60;99.90;;;;;;4969254;28;20039;-75
2022/07/12 00:14:04;;;;;;;5.45;3.35;;;15.70;99.90;;;;;;4965132;28;20138;-76
2022/07/12 00:16:29;;;;;;;1.95;1.85;;;15.70;99.90;;;;;;4969196;28;20130;-75
2022/07/12 00:18:56;;;;;;;3.20;2.78;;;15.70;99.90;;;;;;4969422;28;20518;-75
2022/07/12 00:21:22;;;;;;;3.53;2.55;;;15.80;99.90;;;;;;4967850;28;20070;-76
2022/07/12 00:23:48;;;;;;;3.28;2.60;;;15.80;99.90;;;;;;4971768;28;20271;-76
2022/07/12 00:26:14;;;;;;;3.70;3.17;;;15.80;99.90;;;;;;4969975;28;20094;-76
2022/07/12 00:28:39;;;;;;;4.18;3.60;;;15.80;99.90;;;;;;4969270;28;20059;-76
2022/07/12 00:31:05;;;;;;;3.15;2.40;;;15.70;99.90;;;;;;4963602;28;20043;-76
2022/07/12 00:33:31;;;;;;;2.80;2.50;;;15.70;99.90;;;;;;4960387;28;20050;-76
2022/07/12 00:35:56;;;;;;;4.47;2.17;;;15.70;99.90;;;;;;4968970;28;20038;-76
2022/07/12 00:38:22;;;;;;;3.13;2.40;;;15.70;99.90;;;;;;4966905;28;20054;-76
2022/07/12 00:40:49;;;;;;;3.25;2.38;;;15.70;99.90;;;;;;4969560;28;20058;-76
2022/07/12 00:43:15;;;;;;;2.50;2.30;;;15.60;99.90;;;;;;4966874;28;20061;-76
2022/07/12 00:45:41;;;;;;;3.40;2.33;;;15.60;99.90;;;;;;4967832;28;20507;-75
2022/07/12 00:48:09;;;;;;;2.90;2.70;;;15.60;99.90;;;;;;4969311;28;20050;-76
2022/07/12 00:50:35;;;;;;;6.32;3.22;;;15.60;99.90;;;;;;4984447;28;20058;-75
2022/07/12 00:53:01;;;;;;;2.83;2.60;;;15.60;99.90;;;;;;4965846;28;20055;-76
2022/07/12 00:55:27;;;;;;;3.33;2.92;;;15.50;99.90;;;;;;4968373;28;20117;-76
2022/07/12 00:57:53;;;;;;;2.75;2.35;;;15.50;99.90;;;;;;4961864;28;20169;-76
2022/07/12 01:00:22;;;;;;;3.08;2.78;;;15.40;99.90;;;;;;4968969;28;21039;-75
2022/07/12 01:02:49;;;;;;;2.33;2.13;;;15.40;99.90;;;;;;4951515;28;20058;-76
2022/07/12 01:05:15;;;;;;;4.00;2.97;;;15.40;99.90;;;;;;4963847;28;20047;-76
2022/07/12 01:07:40;;;;;;;3.42;3.00;;;15.30;99.90;;;;;;4961453;28;20109;-74
2022/07/12 01:10:07;;;;;;;4.65;3.17;;;15.20;99.90;;;;;;4968652;28;20121;-75
2022/07/12 01:12:33;;;;;;;3.35;2.90;;;15.20;99.90;;;;;;4966057;28;20056;-76
2022/07/12 01:15:00;;;;;;;3.60;3.28;;;15.20;99.90;;;;;;4966908;28;20054;-76
2022/07/12 01:17:26;;;;;;;2.95;2.65;;;15.10;99.90;;;;;;4966442;28;20069;-76
2022/07/12 01:19:55;;;;;;;3.45;2.90;;;15.10;99.90;;;;;;4968570;28;20055;-76
2022/07/12 01:22:26;;;;;;;2.28;2.08;;;15.10;99.90;;;;;;4966871;28;20043;-75
2022/07/12 01:24:52;;;;;;;2.92;2.50;;;15.00;99.90;;;;;;4962481;28;20135;-76
2022/07/12 01:27:18;;;;;;;4.60;2.63;;;15.00;99.90;;;;;;4965438;28;20129;-75
2022/07/12 01:29:43;;;;;;;4.93;2.97;;;14.90;99.90;;;;;;4960331;28;20051;-75
2022/07/12 01:32:24;;;;;;;3.63;2.95;;;14.90;99.90;;;;;;4968342;28;20573;-75
2022/07/12 01:34:54;;;;;;;2.22;2.03;;;14.90;99.90;;;;;;4971310;28;20046;-75
2022/07/12 01:37:21;;;;;;;4.68;3.35;;;14.80;99.90;;;;;;4962409;28;20050;-75
2022/07/12 01:39:53;;;;;;;3.17;2.87;;;14.80;99.90;;;;;;4970621;28;20088;-75
2022/07/12 01:42:24;;;;;;;3.90;3.50;;;14.80;99.90;;;;;;4969857;28;20489;-75
2022/07/12 01:44:51;;;;;;;3.83;3.50;;;14.70;99.90;;;;;;4968547;28;20043;-76
2022/07/12 01:47:18;;;;;;;3.30;2.63;;;14.70;99.90;;;;;;4968761;28;20094;-75
2022/07/12 01:49:43;;;;;;;3.15;2.47;;;14.60;99.90;;;;;;4967199;28;20306;-75
2022/07/12 01:52:09;;;;;;;2.20;2.00;;;14.50;99.90;;;;;;4970108;28;20031;-75
2022/07/12 01:54:35;;;;;;;4.25;2.40;;;14.50;99.90;;;;;;4970622;28;20499;-76
2022/07/12 01:57:02;;;;;;;2.72;2.20;;;14.50;99.90;;;;;;4979823;28;20506;-76
2022/07/12 01:59:29;;;;;;;2.67;2.10;;;14.50;99.90;;;;;;4970054;28;20051;-76
2022/07/12 02:01:56;;;;;;;2.65;1.42;;;14.40;99.90;;;;;;4969901;28;20126;-75
2022/07/12 02:04:21;;;;;;;1.73;1.63;;;14.40;99.90;;;;;;4970504;28;20121;-76
2022/07/12 02:06:48;;;;;;;1.58;1.48;;;14.30;99.90;;;;;;4970934;28;20441;-75
2022/07/12 02:09:14;;;;;;;2.08;1.85;;;14.20;99.90;;;;;;4969840;28;20062;-75
2022/07/12 02:11:41;;;;;;;9.57;1.33;;;14.20;99.90;;;;;;4963174;28;20039;-75
2022/07/12 02:14:07;;;;;;;5.00;2.05;;;14.20;99.90;;;;;;4970978;28;20047;-76
2022/07/12 02:16:33;;;;;;;2.60;1.77;;;14.10;99.90;;;;;;4970396;28;20622;-76
2022/07/12 02:18:59;;;;;;;4.95;1.88;;;14.10;99.90;;;;;;4971111;28;20054;-75
2022/07/12 02:21:25;;;;;;;1.65;1.55;;;14.10;99.90;;;;;;4970145;28;20515;-75
2022/07/12 02:23:51;;;;;;;2.00;1.75;;;14.00;99.90;;;;;;4962232;28;20478;-75
2022/07/12 02:26:16;;;;;;;3.55;2.97;;;14.00;99.90;;;;;;4967933;28;20130;-75
2022/07/12 02:28:42;;;;;;;2.70;2.40;;;13.90;99.90;;;;;;4970373;28;20079;-75
2022/07/12 02:31:08;;;;;;;2.80;2.55;;;13.90;99.90;;;;;;4966335;28;20079;-75
2022/07/12 02:33:34;;;;;;;2.83;1.83;;;13.90;99.90;;;;;;4969918;28;20138;-75
2022/07/12 02:36:00;;;;;;;3.03;2.72;;;13.80;99.90;;;;;;4966738;28;20035;-75
2022/07/12 02:38:25;;;;;;;2.35;2.15;;;13.80;99.90;;;;;;4970638;28;20055;-74
2022/07/12 02:40:54;;;;;;;3.17;2.20;;;13.80;99.90;;;;;;4970141;28;20840;-74
2022/07/12 02:43:24;;;;;;;3.03;2.35;;;13.80;99.90;;;;;;4970991;28;20042;-75
2022/07/12 02:45:51;;;;;;;2.95;1.77;;;13.70;99.90;;;;;;4962313;28;20412;-75
2022/07/12 02:48:17;;;;;;;2.60;1.80;;;13.70;99.90;;;;;;4966711;28;20162;-75
2022/07/12 02:50:43;;;;;;;2.13;1.80;;;13.70;99.90;;;;;;4969881;28;20047;-75
2022/07/12 02:53:09;;;;;;;2.30;2.10;;;13.60;99.90;;;;;;4971265;28;20045;-75
2022/07/12 02:55:35;;;;;;;2.13;1.63;;;13.60;99.90;;;;;;4971229;28;20062;-75
2022/07/12 02:58:01;;;;;;;4.03;3.13;;;13.60;99.90;;;;;;4969909;28;20158;-74
2022/07/12 03:00:28;;;;;;;4.03;3.60;;;13.60;99.90;;;;;;4966307;28;20083;-74
2022/07/12 03:02:54;;;;;;;4.57;3.55;;;13.50;99.90;;;;;;4964617;28;20055;-74
2022/07/12 03:05:20;;;;;;;4.05;3.50;;;13.50;99.90;;;;;;4969650;28;20054;-75
2022/07/12 03:07:45;;;;;;;3.42;3.10;;;13.40;99.90;;;;;;4969006;28;20039;-75
2022/07/12 03:10:11;;;;;;;3.80;2.67;;;13.40;99.90;;;;;;4970745;28;20054;-75
2022/07/12 03:12:37;;;;;;;3.33;2.67;;;13.40;99.90;;;;;;4970851;28;20412;-75
2022/07/12 03:15:07;;;;;;;2.65;2.30;;;13.40;99.90;;;;;;4967365;28;20046;-74
2022/07/12 03:17:34;;;;;;;2.15;1.95;;;13.40;99.90;;;;;;4963643;28;20046;-75
2022/07/12 03:20:00;;;;;;;3.15;2.42;;;13.30;99.90;;;;;;4970535;28;20466;-75
2022/07/12 03:22:26;;;;;;;2.75;2.53;;;13.30;99.90;;;;;;4967649;28;20039;-74
2022/07/12 03:24:52;;;;;;;2.55;2.35;;;13.30;99.90;;;;;;4964818;28;20057;-74
2022/07/12 03:27:18;;;;;;;2.83;2.55;;;13.20;99.90;;;;;;4970600;28;20125;-75
2022/07/12 03:29:44;;;;;;;2.85;2.65;;;13.20;99.90;;;;;;4968666;28;20117;-75
2022/07/12 03:32:10;;;;;;;2.50;2.30;;;13.20;99.90;;;;;;4970000;28;20047;-75
2022/07/12 03:34:37;;;;;;;2.30;1.92;;;13.20;99.90;;;;;;4970014;28;20186;-75
2022/07/12 03:37:03;;;;;;;2.72;2.53;;;13.10;99.90;;;;;;4958618;28;20050;-75
2022/07/12 03:39:29;;;;;;;2.63;2.42;;;13.10;99.90;;;;;;4970106;28;20057;-75
2022/07/12 03:41:55;;;;;;;4.53;3.33;;;13.10;99.90;;;;;;4974259;28;20046;-75
2022/07/12 03:44:21;;;;;;;7.65;5.07;;;13.00;99.90;;;;;;4952891;28;20057;-75
2022/07/12 03:46:47;;;;;;;7.22;4.30;;;12.90;99.90;;;;;;4951683;28;20556;-74
2022/07/12 03:49:13;;;;;;;5.85;3.70;;;12.80;99.90;;;;;;4969285;28;20869;-75
2022/07/12 03:51:39;;;;;;;4.72;2.70;;;12.70;99.90;;;;;;4974845;28;20090;-75
2022/07/12 03:54:07;;;;;;;3.78;2.72;;;12.70;99.90;;;;;;4970284;28;20038;-75
2022/07/12 03:59:18;;;;;;;2.90;2.55;;;12.80;99.90;;;;;;4966126;28;20397;-75
2022/07/12 04:01:44;;;;;;;3.92;3.33;;;12.80;99.90;;;;;;4962599;28;20051;-74
2022/07/12 04:04:09;;;;;;;4.03;3.05;;;12.90;99.90;;;;;;4953957;28;20039;-75
2022/07/12 04:06:35;;;;;;;7.50;3.83;;;12.80;99.90;;;;;;4964575;28;20129;-75
2022/07/12 04:09:01;;;;;;;5.88;3.50;;;12.90;99.90;;;;;;4970661;28;20078;-75
2022/07/12 04:11:26;;;;;;;3.17;2.85;;;12.80;99.90;;;;;;4981312;28;20472;-74
2022/07/12 04:13:52;;;;;;;5.32;3.22;;;12.70;99.90;;;;;;4967279;28;20061;-74
2022/07/12 04:16:18;;;;;;;5.63;3.60;;;12.70;99.90;;;;;;4962943;28;20078;-75
2022/07/12 04:18:43;;;;;;;6.15;3.30;;;12.60;99.90;;;;;;4962425;28;20047;-75
2022/07/12 04:21:09;;;;;;;8.23;3.72;;;12.60;99.90;;;;;;4949683;28;20050;-75
2022/07/12 04:23:34;;;;;;;2.60;2.40;;;12.60;99.90;;;;;;4977968;28;20493;-75
2022/07/12 04:26:00;;;;;;;7.80;4.53;;;12.60;99.90;;;;;;4972671;28;20038;-75
2022/07/12 04:28:26;;;;;;;7.95;3.72;;;12.70;99.90;;;;;;4971895;28;20506;-75
2022/07/12 04:30:52;;;;;;;15.75;5.68;;;12.70;99.90;;;;;;4967272;28;20078;-75
2022/07/12 04:33:18;;;;;;;13.00;5.60;;;12.80;99.90;;;;;;4953361;28;20050;-75
2022/07/12 04:35:44;;;;;;;11.95;4.90;;;12.70;99.90;;;;;;4967788;28;20479;-75
2022/07/12 04:38:10;;;;;;;8.63;4.95;;;12.70;99.90;;;;;;4985358;28;20058;-75
2022/07/12 04:40:36;;;;;;;6.75;4.63;;;12.60;99.90;;;;;;4987775;28;20093;-74
2022/07/12 04:43:01;;;;;;;6.97;5.10;;;12.70;99.90;;;;;;4986427;28;20046;-76
2022/07/12 04:45:27;;;;;;;15.25;5.45;;;12.60;99.90;;;;;;4970534;28;20081;-76
2022/07/12 04:47:52;;;;;;;10.25;5.60;;;12.70;99.90;;;;;;4971186;28;20050;-75
2022/07/12 04:50:19;;;;;;;19.38;5.10;;;12.70;99.90;;;;;;4985956;28;20132;-75
2022/07/12 04:52:45;;;;;;;13.55;4.95;;;12.70;99.90;;;;;;4969397;28;20834;-74
2022/07/12 04:55:10;;;;;;;6.95;4.47;;;12.70;99.90;;;;;;4987343;28;20046;-75
2022/07/12 04:57:36;;;;;;;5.72;4.15;;;12.70;99.90;;;;;;4987918;28;20405;-75
2022/07/12 05:00:04;;;;;;;5.70;4.28;;;12.80;99.90;;;;;;4988178;28;20411;-75
2022/07/12 05:02:30;;;;;;;;;;;12.80;99.90;;;;;;4969007;28;20729;-75
2022/07/12 05:04:55;;;;;;;9.85;5.88;;;12.90;99.90;;;;;;4987129;28;19922;-73
2022/07/12 05:07:21;;;;;;;14.75;4.82;;;12.90;99.90;;;;;;4981819;28;20051;-75
2022/07/12 05:09:46;;;;;;;18.77;4.90;;;12.90;99.90;;;;;;4966184;28;20038;-75
2022/07/12 05:12:12;;;;;;;4.82;3.47;;;13.00;99.90;;;;;;4970995;28;20046;-75
2022/07/12 05:14:38;;;;;;;12.10;4.55;;;13.10;99.90;;;;;;4987024;28;20065;-75
2022/07/12 05:17:04;;;;;;;10.20;3.63;;;13.20;99.90;;;;;;4970690;28;20054;-75
2022/07/12 05:19:29;;;;;;;15.07;3.88;;;13.20;99.90;;;;;;4954835;28;20561;-75
2022/07/12 05:21:55;;;;;;;16.10;3.70;;;13.20;99.90;;;;;;4986890;28;20058;-75
2022/07/12 05:24:21;;;;;;;4.28;3.05;;;13.30;99.90;;;;;;4970776;28;20030;-75
2022/07/12 05:26:46;;;;;;;7.38;4.35;;;13.40;99.90;;;;;;4991497;28;20121;-75
2022/07/12 05:29:15;;;;;;;5.25;3.97;;;13.60;99.90;;;;;;4981818;28;20081;-75
2022/07/12 05:31:40;;;;;;;9.77;3.95;;;13.60;99.90;;;;;;4980912;28;20034;-74
2022/07/12 05:34:06;;;;;;;6.45;5.28;;;13.60;99.90;;;;;;4987287;28;20173;-74
2022/07/12 05:36:32;;;;;;;7.05;5.88;;;13.70;99.90;;;;;;4977882;28;20059;-74
2022/07/12 05:38:57;;;;;;;9.55;6.32;;;13.70;99.90;;;;;;4979506;28;20062;-75
2022/07/12 05:41:24;;;;;;;14.52;7.65;;;13.80;99.90;;;;;;4978431;28;20046;-75
2022/07/12 05:43:50;;;;;;;11.48;6.88;;;13.90;99.90;;;;;;4987106;28;20047;-75
2022/07/12 05:46:16;;;;;;;10.57;7.03;;;13.90;99.90;;;;;;4979937;28;20495;-76
2022/07/12 05:48:42;;;;;;;9.38;6.82;;;14.00;99.90;;;;;;4987495;28;20046;-77
2022/07/12 05:53:52;;;;;;;19.67;12.50;;;14.20;99.90;;;;;;4981967;28;20046;-76
2022/07/12 05:56:17;;;;;;;15.77;12.00;;;14.30;99.90;;;;;;4976942;28;20050;-76
2022/07/12 05:58:43;;;;;;;15.43;11.35;;;14.50;99.90;;;;;;4985155;28;20100;-75
2022/07/12 06:01:08;;;;;;;17.63;13.02;;;14.60;99.90;;;;;;4969017;28;20050;-75
2022/07/12 06:03:34;;;;;;;19.75;13.55;;;14.80;99.90;;;;;;4965995;28;20397;-76
2022/07/12 06:06:00;;;;;;;19.67;13.18;;;14.90;99.90;;;;;;4982190;28;20054;-76
2022/07/12 06:08:27;;;;;;;18.88;14.00;;;15.00;99.90;;;;;;4969532;28;20065;-76
2022/07/12 06:10:53;;;;;;;18.65;12.73;;;15.10;99.90;;;;;;4978030;28;20097;-76
2022/07/12 06:13:19;;;;;;;23.08;13.88;;;15.30;99.90;;;;;;4962142;28;20042;-75
2022/07/12 06:15:44;;;;;;;19.00;13.30;;;15.40;99.90;;;;;;4985116;28;20439;-75
2022/07/12 06:18:10;;;;;;;19.52;14.00;;;15.50;99.90;;;;;;4968141;28;20415;-75
2022/07/12 06:20:35;;;;;;;16.30;12.30;;;15.60;99.90;;;;;;4987065;28;20518;-73
2022/07/12 06:23:02;;;;;;;21.25;14.85;;;15.70;99.90;;;;;;4971077;28;20045;-76
2022/07/12 06:25:28;;;;;;;20.98;14.00;;;15.80;99.90;;;;;;4990708;28;20056;-76
2022/07/12 06:27:53;;;;;;;20.25;15.00;;;15.80;99.90;;;;;;4973083;28;20042;-76
2022/07/12 06:30:20;;;;;;;27.83;14.57;;;16.00;99.90;;;;;;4986730;28;20082;-76
2022/07/12 06:32:47;;;;;;;19.15;15.38;;;16.10;99.90;;;;;;4973691;28;20058;-75
2022/07/12 06:35:14;;;;;;;17.80;14.50;;;16.20;99.90;;;;;;4990787;28;20065;-77
2022/07/12 06:37:41;;;;;;;20.00;13.10;;;16.30;99.90;;;;;;4973545;28;20054;-76
2022/07/12 06:40:07;;;;;;;19.75;15.05;;;16.40;99.90;;;;;;4971059;28;20047;-77
2022/07/12 06:42:33;;;;;;;19.75;14.38;;;16.50;99.90;;;;;;4966783;28;20053;-77
2022/07/12 06:44:59;;;;;;;18.05;14.30;;;16.60;99.90;;;;;;4968764;28;20081;-77
2022/07/12 06:47:25;;;;;;;20.23;13.70;;;16.60;99.90;;;;;;4970379;28;20806;-77
2022/07/12 06:49:51;;;;;;;19.17;15.20;;;16.70;99.90;;;;;;4970918;28;20043;-77
2022/07/12 06:52:17;;;;;;;16.35;13.65;;;16.80;99.90;;;;;;4979621;28;20492;-77
2022/07/12 06:54:43;;;;;;;15.95;13.63;;;16.90;99.90;;;;;;4969501;28;20047;-76
2022/07/12 06:57:08;;;;;;;18.90;15.57;;;17.00;99.90;;;;;;4966360;28;20181;-78
2022/07/12 06:59:34;;;;;;;18.17;14.13;;;17.10;99.90;;;;;;4969484;28;20046;-77
2022/07/12 07:02:00;;;;;;;15.73;13.30;;;17.30;99.90;;;;;;4970715;28;20137;-77
2022/07/12 07:04:25;;;;;;;17.27;13.57;;;17.40;99.90;;;;;;4970956;28;20047;-78
2022/07/12 07:06:51;;;;;;;17.80;14.40;;;17.50;99.90;;;;;;4961019;28;20079;-78
2022/07/12 07:09:17;;;;;;;15.63;13.20;;;17.70;99.90;;;;;;4970701;28;20042;-78
2022/07/12 07:11:44;;;;;;;16.55;13.15;;;17.80;99.90;;;;;;4967648;28;20567;-78
2022/07/12 07:14:10;;;;;;;13.77;11.98;;;17.90;99.90;;;;;;4970247;28;20059;-78
2022/07/12 07:16:40;;;;;;;15.40;12.30;;;18.10;99.90;;;;;;4973475;28;20081;-78
2022/07/12 07:19:06;;;;;;;13.60;11.40;;;18.30;99.90;;;;;;4971025;28;20900;-78
2022/07/12 07:21:32;;;;;;;16.75;12.35;;;18.50;99.90;;;;;;4969041;28;20047;-78
2022/07/12 07:23:57;;;;;;;16.33;11.82;;;18.60;99.90;;;;;;4970722;28;20047;-78
2022/07/12 07:26:24;;;;;;;14.05;12.10;;;18.90;99.90;;;;;;4966544;28;20082;-77
2022/07/12 07:31:37;;;;;;;10.45;9.35;;;19.40;99.90;;;;;;4969332;28;20054;-78
2022/07/12 07:34:03;;;;;;;14.73;12.23;;;19.60;99.90;;;;;;4963281;28;20046;-78
2022/07/12 07:36:30;;;;;;;12.85;11.05;;;19.70;99.90;;;;;;4970173;28;20055;-77
2022/07/12 07:38:57;;;;;;;14.85;10.07;;;19.90;99.90;;;;;;4972297;28;20066;-77
2022/07/12 07:41:22;;;;;;;11.07;9.77;;;20.00;99.90;;;;;;4978133;28;20121;-77
2022/07/12 07:43:49;;;;;;;10.77;9.02;;;20.20;99.90;;;;;;4971398;28;20886;-77
2022/07/12 07:46:14;;;;;;;16.55;9.43;;;20.30;99.90;;;;;;4969148;28;20058;-78
2022/07/12 07:48:40;;;;;;;10.88;9.45;;;20.50;99.90;;;;;;4967978;28;20046;-78
2022/07/12 07:51:06;;;;;;;12.80;10.68;;;20.70;99.90;;;;;;4972683;28;20046;-78
2022/07/12 07:53:31;;;;;;;11.10;9.68;;;21.00;99.90;;;;;;4972105;28;20051;-78
2022/07/12 07:55:58;;;;;;;13.00;9.88;;;21.20;99.90;;;;;;4987603;28;20105;-78
2022/07/12 07:58:24;;;;;;;11.17;9.63;;;21.60;99.90;;;;;;4970802;28;20104;-77
2022/07/12 08:00:50;;;;;;;12.82;9.13;;;21.90;99.90;;;;;;4987752;28;20046;-77
2022/07/12 08:03:17;;;;;;;9.32;7.95;;;22.00;99.90;;;;;;4985624;28;20129;-76
2022/07/12 08:05:42;;;;;;;12.38;7.95;;;22.30;99.90;;;;;;4968116;28;20047;-77
2022/07/12 08:08:08;;;;;;;10.07;8.23;;;22.50;99.90;;;;;;4982657;28;20047;-76
2022/07/12 08:10:34;;;;;;;13.65;8.55;;;22.70;99.90;;;;;;4981887;28;20086;-76
2022/07/12 08:12:59;;;;;;;8.07;7.28;;;22.80;99.90;;;;;;4968127;28;20458;-76
2022/07/12 08:15:25;;;;;;;5.80;5.30;;;23.10;99.90;;;;;;4991972;28;20439;-77
2022/07/12 08:17:51;;;;;;;7.63;6.20;;;23.40;99.90;;;;;;4964894;28;20053;-77
2022/07/12 08:20:18;;;;;;;6.85;5.72;;;23.30;99.90;;;;;;4982695;28;20045;-77
2022/07/12 08:22:45;;;;;;;8.10;7.07;;;23.40;99.90;;;;;;4984151;28;20073;-76
2022/07/12 08:25:12;;;;;;;5.88;5.00;;;23.60;99.90;;;;;;4971105;28;20054;-76
2022/07/12 08:27:38;;;;;;;7.80;7.10;;;23.80;99.90;;;;;;4968894;28;20042;-79
2022/07/12 08:30:04;;;;;;;5.22;4.75;;;24.10;99.90;;;;;;4966488;28;20104;-77
2022/07/12 08:32:29;;;;;;;7.30;6.05;;;24.20;99.90;;;;;;4987485;28;20042;-77
2022/07/12 08:34:55;;;;;;;7.10;6.50;;;24.30;99.90;;;;;;4987682;28;20639;-78
2022/07/12 08:37:21;;;;;;;5.28;4.78;;;24.50;99.90;;;;;;4964447;28;20107;-77
2022/07/12 08:39:47;;;;;;;6.05;4.65;;;24.70;99.90;;;;;;4970874;28;20424;-77
2022/07/12 08:42:15;;;;;;;5.72;4.50;;;24.80;99.90;;;;;;4964414;28;20109;-77
2022/07/12 08:44:41;;;;;;;6.88;5.82;;;24.90;99.90;;;;;;4982698;28;20050;-77
2022/07/12 08:47:10;;;;;;;21.08;7.53;;;25.00;99.90;;;;;;4982848;28;20404;-76
2022/07/12 08:49:36;;;;;;;5.53;5.00;;;25.00;99.90;;;;;;4986302;28;20042;-74
2022/07/12 08:52:26;;;;;;;4.57;4.18;;;24.80;99.90;;;;;;4988589;28;20062;-78
2022/07/12 08:54:52;;;;;;;6.68;4.93;;;25.20;99.90;;;;;;4984871;28;20061;-77
2022/07/12 08:57:31;;;;;;;6.32;5.72;;;25.20;99.90;;;;;;4972720;28;20482;-78
2022/07/12 09:00:01;;;;;;;5.50;5.03;;;25.30;99.90;;;;;;4985583;28;20161;-78
2022/07/12 09:02:27;;;;;;;5.50;5.03;;;25.20;99.90;;;;;;4984336;28;20078;-78
2022/07/12 09:05:06;;;;;;;6.13;5.55;;;25.00;99.90;;;;;;4969210;28;20088;-77
2022/07/12 09:07:35;;;;;;;9.10;4.90;;;24.90;99.90;;;;;;4970769;28;20056;-77
2022/07/12 09:10:05;;;;;;;5.50;5.00;;;24.90;99.90;;;;;;4987789;28;20061;-77
2022/07/12 09:12:34;;;;;;;5.63;5.13;;;24.90;99.90;;;;;;4970710;28;20054;-78
2022/07/12 09:15:13;;;;;;;5.97;5.50;;;25.00;99.90;;;;;;4986273;28;20053;-77
2022/07/12 09:17:39;;;;;;;7.03;6.03;;;25.00;99.90;;;;;;4987763;28;20039;-77
2022/07/12 09:20:05;;;;;;;5.57;5.07;;;24.90;99.90;;;;;;4987240;28;20132;-77
2022/07/12 09:22:31;;;;;;;5.55;4.15;;;25.00;99.90;;;;;;4987480;28;20050;-78
2022/07/12 09:24:56;;;;;;;6.13;5.63;;;25.20;99.90;;;;;;4988133;28;20693;-76
2022/07/12 09:27:26;;;;;;;7.38;6.72;;;25.20;99.90;;;;;;4987583;28;20049;-77
2022/07/12 09:29:51;;;;;;;5.70;5.18;;;25.30;99.90;;;;;;4964652;28;20113;-77
2022/07/12 09:37:47;;;;;;;4.72;4.20;;;25.40;99.90;;;;;;4987400;28;20058;-78
2022/07/12 09:40:13;;;;;;;6.80;5.20;;;25.30;99.90;;;;;;4970491;28;20104;-77
2022/07/12 09:42:40;;;;;;;8.30;5.90;;;25.40;99.90;;;;;;4988079;28;20050;-77
2022/07/12 09:45:09;;;;;;;11.07;5.63;;;25.60;99.90;;;;;;4970198;28;20054;-78
2022/07/12 09:47:35;;;;;;;5.32;4.93;;;25.70;99.90;;;;;;4987887;28;20068;-77
2022/07/12 09:50:01;;;;;;;4.70;4.30;;;25.80;99.90;;;;;;4987418;28;20462;-77
2022/07/12 09:52:27;;;;;;;4.60;4.20;;;25.80;99.90;;;;;;4968960;28;20059;-77
2022/07/12 09:54:56;;;;;;;6.47;4.85;;;26.00;99.90;;;;;;4986346;28;20585;-77
2022/07/12 09:57:30;;;;;;;5.45;4.75;;;26.00;99.90;;;;;;4973299;28;20053;-78
2022/07/12 10:00:01;;;;;;;5.30;4.80;;;26.20;99.90;;;;;;4991685;28;20399;-77
2022/07/12 10:02:27;;;;;;;4.28;3.90;;;26.30;99.90;;;;;;4956721;28;20054;-77
2022/07/12 10:04:54;;;;;;;3.45;3.15;;;26.30;99.90;;;;;;4991337;28;20046;-77
2022/07/12 10:07:20;;;;;;;5.35;4.85;;;26.40;99.90;;;;;;4991455;28;20038;-77
2022/07/12 10:09:52;;;;;;;4.57;4.18;;;26.50;99.90;;;;;;4988366;28;20042;-77
2022/07/12 10:12:20;;;;;;;6.82;6.30;;;26.60;99.90;;;;;;4990060;28;20047;-78
2022/07/12 10:14:48;;;;;;;6.05;5.32;;;26.70;99.90;;;;;;4990205;28;20053;-77
2022/07/12 10:17:22;;;;;;;7.05;4.10;;;26.70;99.90;;;;;;4988891;28;20136;-78
2022/07/12 10:19:48;;;;;;;3.65;3.40;;;26.60;99.90;;;;;;4989036;28;20051;-78
2022/07/12 10:22:21;;;;;;;3.72;3.53;;;26.70;99.90;;;;;;4970082;28;20291;-78
2022/07/12 10:24:49;;;;;;;15.73;4.90;;;26.90;99.90;;;;;;4973651;28;20439;-78
2022/07/12 10:27:14;;;;;;;5.57;3.80;;;26.90;99.90;;;;;;4991574;28;20054;-78
2022/07/12 10:29:45;;;;;;;5.15;3.92;;;27.10;99.90;;;;;;4981592;28;20385;-78
2022/07/12 10:32:21;;;;;;;3.45;3.03;;;27.20;99.90;;;;;;4978853;28;20042;-75
2022/07/12 10:34:58;;;;;;;8.65;4.00;;;27.40;99.90;;;;;;4985351;28;20043;-77
2022/07/12 10:37:24;;;;;;;;;;;27.60;99.90;;;;;;4969788;28;20074;-78
2022/07/12 10:40:17;;;;;;;3.65;3.42;;;27.60;99.90;;;;;;4971564;28;19929;-78
2022/07/12 10:43:12;;;;;;;3.10;2.90;;;27.60;96.90;;;;;;4953016;28;20058;-77
2022/07/12 10:45:39;;;;;;;3.60;3.20;;;27.30;96.70;;;;;;4969326;28;20050;-77
2022/07/12 10:48:07;;;;;;;2.78;2.50;;;27.10;99.90;;;;;;4968643;28;20055;-78
2022/07/12 10:50:43;;;;;;;2.45;2.35;;;27.00;99.90;;;;;;4962165;28;20393;-78
2022/07/12 10:53:26;;;;;;;3.42;3.13;;;27.00;99.90;;;;;;4962190;28;20813;-78
2022/07/12 10:56:04;;;;;;;3.45;2.70;;;27.10;99.90;;;;;;4952972;28;20050;-77
2022/07/12 10:58:43;;;;;;;4.25;3.33;;;27.30;99.90;;;;;;4965705;28;20046;-78
2022/07/12 11:01:15;;;;;;;4.00;2.90;;;27.50;97.10;;;;;;4968212;28;20101;-77
2022/07/12 11:03:45;;;;;;;2.40;2.20;;;27.60;99.90;;;;;;4968677;28;20057;-78
2022/07/12 11:06:12;;;;;;;3.50;3.20;;;27.50;99.60;;;;;;4968518;28;20043;-78
2022/07/12 11:09:06;;;;;;;3.47;3.17;;;27.70;98.70;;;;;;4970954;28;20050;-77
2022/07/12 11:11:43;;;;;;;4.45;4.07;;;27.60;94.30;;;;;;4967715;28;20087;-78
2022/07/12 11:14:09;;;;;;;7.47;3.17;;;27.80;97.00;;;;;;4967443;28;20043;-78
2022/07/12 11:16:42;;;;;;;4.32;2.65;;;27.80;99.90;;;;;;4965564;28;20051;-77
2022/07/12 11:19:08;;;;;;;4.13;3.20;;;27.70;99.90;;;;;;4969742;28;20378;-78
2022/07/12 11:21:35;;;;;;;9.82;2.97;;;27.80;98.70;;;;;;4969325;28;20890;-78
2022/07/12 11:24:01;;;;;;;2.95;2.70;;;27.90;96.20;;;;;;4962433;28;20047;-77
2022/07/12 11:26:27;;;;;;;2.20;2.10;;;28.00;95.10;;;;;;4967998;28;20136;-77
2022/07/12 11:28:57;;;;;;;5.32;2.40;;;28.10;95.80;;;;;;4965641;28;20082;-76
2022/07/12 11:31:25;;;;;;;4.45;2.38;;;28.20;92.80;;;;;;4966702;28;20039;-78
2022/07/12 11:33:51;;;;;;;2.92;2.72;;;28.30;94.80;;;;;;4969572;28;20973;-77
2022/07/12 11:36:17;;;;;;;2.70;2.50;;;28.40;92.60;;;;;;4970238;28;20050;-76
2022/07/12 11:38:46;;;;;;;2.88;2.42;;;28.50;93.30;;;;;;4989658;28;20109;-77
2022/07/12 11:41:13;;;;;;;3.15;2.05;;;28.50;88.90;;;;;;4989839;28;20057;-77
2022/07/12 11:43:40;;;;;;;2.50;2.30;;;28.60;84.00;;;;;;4988198;28;20505;-78
2022/07/12 11:46:07;;;;;;;2.10;2.00;;;28.50;87.60;;;;;;4989922;28;20417;-77
2022/07/12 11:48:33;;;;;;;2.50;2.30;;;28.60;87.70;;;;;;4970297;28;20368;-78
2022/07/12 11:51:09;;;;;;;2.95;2.47;;;28.50;91.10;;;;;;4969225;28;20445;-77
2022/07/12 11:53:36;;;;;;;2.65;2.50;;;28.40;83.20;;;;;;4981906;28;20058;-77
2022/07/12 11:56:04;;;;;;;4.40;2.28;;;28.40;91.50;;;;;;4989493;28;20045;-77
2022/07/12 11:58:32;;;;;;;3.60;2.03;;;28.40;91.90;;;;;;4984784;28;20587;-77
2022/07/12 12:00:58;;;;;;;2.63;2.38;;;28.40;90.70;;;;;;4989170;28;20058;-79
2022/07/12 12:03:24;;;;;;;2.42;2.22;;;28.40;87.60;;;;;;4973284;28;20039;-77
2022/07/12 12:05:53;;;;;;;2.33;2.20;;;28.40;84.90;;;;;;4983082;28;20053;-78
2022/07/12 12:08:19;;;;;;;2.47;2.38;;;28.50;84.90;;;;;;4988514;28;20053;-78
2022/07/12 12:10:59;;;;;;;2.30;2.10;;;28.50;80.80;;;;;;4981574;28;20054;-77
2022/07/12 12:13:26;;;;;;;2.53;2.42;;;28.30;75.20;;;;;;4976728;28;20042;-78
2022/07/12 12:16:00;;;;;;;5.50;2.67;;;28.30;80.10;;;;;;4982626;28;20053;-77
2022/07/12 12:18:38;;;;;;;2.33;2.20;;;28.40;75.60;;;;;;4981029;28;20559;-78
2022/07/12 12:21:08;;;;;;;3.22;2.15;;;28.50;79.10;;;;;;4988849;28;20054;-78
2022/07/12 12:23:38;;;;;;;2.10;2.00;;;28.50;76.10;;;;;;4966591;28;20492;-78
2022/07/12 12:26:23;;;;;;;2.20;2.10;;;28.60;76.20;;;;;;4958707;28;20775;-77
2022/07/12 12:28:51;;;;;;;5.80;2.90;;;28.70;74.20;;;;;;4987707;28;20038;-78
2022/07/12 12:31:21;;;;;;;45.10;9.45;;;28.70;72.20;;;;;;4967523;28;20467;-77
2022/07/12 12:33:49;;;;;;;5.85;2.78;;;28.70;75.30;;;;;;4981644;28;20176;-75
2022/07/12 12:36:18;;;;;;;3.58;3.33;;;28.80;78.70;;;;;;4982250;28;20121;-75
2022/07/12 12:38:44;;;;;;;2.58;2.42;;;28.70;78.30;;;;;;4964803;28;20054;-76
2022/07/12 12:41:11;;;;;;;7.32;2.80;;;28.70;79.30;;;;;;4965975;28;20521;-77
2022/07/12 12:43:37;;;;;;;3.20;2.90;;;28.80;82.40;;;;;;4971596;28;20050;-74
2022/07/12 12:46:04;;;;;;;2.80;2.70;;;28.80;77.80;;;;;;4968860;28;20051;-75
2022/07/12 12:48:32;;;;;;;3.65;2.80;;;28.70;74.70;;;;;;4963211;28;20525;-74
2022/07/12 12:51:08;;;;;;;2.30;2.05;;;28.70;75.40;;;;;;4967950;28;20760;-77
2022/07/12 12:53:41;;;;;;;2.70;2.50;;;28.70;73.70;;;;;;4984437;28;20590;-77
2022/07/12 12:56:13;;;;;;;3.50;2.47;;;28.80;75.20;;;;;;4967760;28;20121;-77
2022/07/12 12:58:39;;;;;;;2.97;2.55;;;28.80;74.20;;;;;;4959419;28;20039;-75